createdAt,value
2023-05-01T00:00:05.653Z,15.66
2023-05-01T00:01:08.933Z,15.65
2023-05-01T00:02:12.753Z,15.65
2023-05-01T00:03:18.913Z,15.63
2023-05-01T00:04:23.654Z,15.62
2023-05-01T00:05:27.768Z,15.60
2023-05-01T00:06:33.979Z,15.57
2023-05-01T00:07:37.988Z,15.56
2023-05-01T00:08:41.724Z,15.55
2023-05-01T00:09:45.857Z,15.53
2023-05-01T00:10:49.257Z,15.53
2023-05-01T00:11:52.539Z,15.52
2023-05-01T00:12:55.730Z,15.53
2023-05-01T00:13:59.332Z,15.52
2023-05-01T00:15:02.781Z,15.52
2023-05-01T00:16:12.519Z,15.52
2023-05-01T00:17:16.260Z,15.50
2023-05-01T00:18:19.775Z,15.50
2023-05-01T00:19:23.178Z,15.50
2023-05-01T00:20:30.694Z,15.48
2023-05-01T00:21:34.708Z,15.49
2023-05-01T00:22:38.676Z,15.48
2023-05-01T00:23:42.047Z,15.47
2023-05-01T00:24:45.989Z,15.46
2023-05-01T00:25:50.089Z,15.43
2023-05-01T00:26:53.564Z,15.41
2023-05-01T00:27:56.985Z,15.39
2023-05-01T00:29:00.068Z,15.36
2023-05-01T00:30:04.398Z,15.35
2023-05-01T00:31:07.852Z,15.32
2023-05-01T00:32:12.079Z,15.32
2023-05-01T00:33:16.419Z,15.30
2023-05-01T00:34:20.414Z,15.29
2023-05-01T00:35:24.360Z,15.26
2023-05-01T00:36:28.124Z,15.25
2023-05-01T00:37:31.703Z,15.23
2023-05-01T00:38:34.854Z,15.22
2023-05-01T00:39:38.081Z,15.20
2023-05-01T00:40:47.859Z,15.19
2023-05-01T00:41:51.867Z,15.19
2023-05-01T00:42:56.356Z,15.17
2023-05-01T00:44:00.573Z,15.16
2023-05-01T00:45:05.026Z,15.16
2023-05-01T00:46:09.202Z,15.16
2023-05-01T00:47:13.332Z,15.15
2023-05-01T00:48:17.320Z,15.14
2023-05-01T00:49:21.006Z,15.14
2023-05-01T00:50:24.907Z,15.14
2023-05-01T00:51:28.816Z,15.14
2023-05-01T00:52:31.829Z,15.16
2023-05-01T00:53:35.560Z,15.16
2023-05-01T00:54:39.131Z,15.17
2023-05-01T00:55:43.021Z,15.18
2023-05-01T00:56:48.608Z,15.19
2023-05-01T00:57:52.241Z,15.21
2023-05-01T00:58:56.116Z,15.21
2023-05-01T01:00:00.072Z,15.21
2023-05-01T01:01:04.147Z,15.22
2023-05-01T01:02:08.306Z,15.23
2023-05-01T01:03:12.688Z,15.22
2023-05-01T01:04:16.765Z,15.23
2023-05-01T01:05:20.684Z,15.24
2023-05-01T01:06:44.777Z,15.24
2023-05-01T01:08:27.787Z,15.24
2023-05-01T01:09:46.393Z,15.24
2023-05-01T01:11:16.562Z,15.23
2023-05-01T01:12:33.238Z,15.24
2023-05-01T01:13:45.428Z,15.23
2023-05-01T01:14:56.533Z,15.23
2023-05-01T01:16:22.522Z,15.24
2023-05-01T01:17:48.044Z,15.23
2023-05-01T01:18:59.527Z,15.21
2023-05-01T01:20:30.188Z,15.22
2023-05-01T01:21:41.598Z,15.20
2023-05-01T01:22:47.791Z,15.18
2023-05-01T01:24:10.322Z,15.18
2023-05-01T01:25:31.158Z,15.17
2023-05-01T01:26:35.009Z,15.14
2023-05-01T01:28:07.335Z,15.10
2023-05-01T01:29:40.666Z,15.06
2023-05-01T01:31:05.250Z,15.04
2023-05-01T01:32:40.485Z,15.02
2023-05-01T01:33:56.579Z,14.99
2023-05-01T01:35:11.401Z,14.97
2023-05-01T01:36:22.376Z,14.97
2023-05-01T01:37:30.353Z,14.96
2023-05-01T01:38:41.949Z,14.95
2023-05-01T01:39:56.463Z,14.95
2023-05-01T01:41:15.905Z,14.95
2023-05-01T01:42:37.615Z,14.96
2023-05-01T01:43:44.142Z,14.97
2023-05-01T01:44:55.906Z,14.94
2023-05-01T01:46:01.735Z,14.90
2023-05-01T01:47:07.262Z,14.86
2023-05-01T01:48:18.746Z,14.78
2023-05-01T01:49:26.806Z,14.68
2023-05-01T01:50:30.693Z,14.62
2023-05-01T01:51:34.310Z,14.52
2023-05-01T01:52:38.743Z,14.45
2023-05-01T01:53:46.271Z,14.44
2023-05-01T01:54:54.391Z,14.43
2023-05-01T01:55:58.293Z,14.39
2023-05-01T01:57:03.263Z,14.33
2023-05-01T01:58:07.090Z,14.26
2023-05-01T01:59:11.352Z,14.24
2023-05-01T02:00:14.857Z,14.22
2023-05-01T02:01:22.768Z,14.20
2023-05-01T02:02:27.759Z,14.20
2023-05-01T02:03:32.298Z,14.20
2023-05-01T02:04:35.927Z,14.22
2023-05-01T02:05:41.786Z,14.24
2023-05-01T02:06:45.183Z,14.24
2023-05-01T02:07:50.335Z,14.27
2023-05-01T02:08:53.645Z,14.31
2023-05-01T02:09:57.375Z,14.33
2023-05-01T02:11:02.200Z,14.32
2023-05-01T02:12:06.721Z,14.35
2023-05-01T02:13:10.784Z,14.37
2023-05-01T02:14:14.406Z,14.38
2023-05-01T02:15:19.309Z,14.39
2023-05-01T02:16:23.980Z,14.39
2023-05-01T02:17:28.789Z,14.41
2023-05-01T02:18:32.437Z,14.43
2023-05-01T02:19:35.566Z,14.43
2023-05-01T02:20:39.204Z,14.45
2023-05-01T02:21:42.315Z,14.44
2023-05-01T02:22:46.857Z,14.46
2023-05-01T02:23:51.316Z,14.44
2023-05-01T02:24:55.315Z,14.43
2023-05-01T02:25:59.029Z,14.41
2023-05-01T02:27:20.077Z,14.38
2023-05-01T02:28:24.278Z,14.36
2023-05-01T02:29:28.204Z,14.36
2023-05-01T02:30:31.492Z,14.37
2023-05-01T02:31:36.087Z,14.34
2023-05-01T02:32:40.456Z,14.31
2023-05-01T02:33:44.053Z,14.28
2023-05-01T02:34:48.006Z,14.29
2023-05-01T02:35:51.558Z,14.29
2023-05-01T02:36:55.044Z,14.25
2023-05-01T02:37:58.744Z,14.27
2023-05-01T02:39:02.452Z,14.23
2023-05-01T02:40:07.551Z,14.18
2023-05-01T02:41:12.270Z,14.18
2023-05-01T02:42:16.750Z,14.18
2023-05-01T02:43:21.736Z,14.19
2023-05-01T02:44:25.051Z,14.19
2023-05-01T02:45:28.804Z,14.23
2023-05-01T02:46:33.041Z,14.22
2023-05-01T02:47:39.477Z,14.25
2023-05-01T02:48:42.870Z,14.28
2023-05-01T02:49:48.654Z,14.28
2023-05-01T02:50:52.799Z,14.28
2023-05-01T02:51:56.722Z,14.29
2023-05-01T02:53:01.544Z,14.28
2023-05-01T02:54:15.556Z,14.24
2023-05-01T02:55:20.069Z,14.22
2023-05-01T02:56:24.069Z,14.22
2023-05-01T02:57:27.744Z,14.24
2023-05-01T02:58:33.338Z,14.24
2023-05-01T02:59:37.837Z,14.26
2023-05-01T03:00:41.927Z,14.27
2023-05-01T03:01:45.296Z,14.29
2023-05-01T03:02:48.731Z,14.31
2023-05-01T03:03:52.844Z,14.31
2023-05-01T03:04:57.597Z,14.32
2023-05-01T03:06:01.683Z,14.31
2023-05-01T03:07:07.329Z,14.32
2023-05-01T03:08:11.677Z,14.33
2023-05-01T03:09:16.075Z,14.33
2023-05-01T03:10:19.675Z,14.31
2023-05-01T03:11:23.472Z,14.31
2023-05-01T03:12:26.962Z,14.30
2023-05-01T03:13:30.660Z,14.29
2023-05-01T03:14:34.270Z,14.25
2023-05-01T03:15:38.535Z,14.27
2023-05-01T03:16:42.217Z,14.27
2023-05-01T03:17:46.206Z,14.27
2023-05-01T03:18:50.508Z,14.28
2023-05-01T03:19:53.801Z,14.28
2023-05-01T03:20:59.967Z,14.29
2023-05-01T03:22:04.753Z,14.29
2023-05-01T03:23:08.344Z,14.31
2023-05-01T03:24:12.276Z,14.30
2023-05-01T03:25:16.688Z,14.30
2023-05-01T03:26:20.279Z,14.29
2023-05-01T03:27:23.844Z,14.30
2023-05-01T03:28:28.113Z,14.30
2023-05-01T03:29:32.320Z,14.30
2023-05-01T03:30:37.292Z,14.31
2023-05-01T03:31:41.223Z,14.31
2023-05-01T03:32:47.611Z,14.31
2023-05-01T03:33:59.560Z,14.32
2023-05-01T03:35:03.376Z,14.33
2023-05-01T03:36:07.142Z,14.32
2023-05-01T03:37:11.578Z,14.35
2023-05-01T03:38:15.541Z,14.35
2023-05-01T03:39:55.287Z,14.37
2023-05-01T03:41:16.844Z,14.39
2023-05-01T03:42:39.065Z,14.40
2023-05-01T03:43:50.977Z,14.43
2023-05-01T03:45:16.357Z,14.43
2023-05-01T03:46:20.274Z,14.43
2023-05-01T03:47:24.577Z,14.43
2023-05-01T03:48:28.236Z,14.42
2023-05-01T03:49:31.743Z,14.41
2023-05-01T03:50:35.154Z,14.39
2023-05-01T03:51:38.571Z,14.37
2023-05-01T03:52:42.595Z,14.29
2023-05-01T03:53:46.594Z,14.25
2023-05-01T03:54:50.532Z,14.22
2023-05-01T03:56:00.145Z,14.21
2023-05-01T03:57:03.592Z,14.19
2023-05-01T03:58:08.212Z,14.20
2023-05-01T03:59:12.004Z,14.21
2023-05-01T04:00:15.947Z,14.22
2023-05-01T04:01:19.073Z,14.25
2023-05-01T04:02:25.442Z,14.29
2023-05-01T04:03:29.630Z,14.32
2023-05-01T04:04:34.187Z,14.34
2023-05-01T04:05:38.216Z,14.36
2023-05-01T04:06:42.566Z,14.39
2023-05-01T04:07:45.985Z,14.40
2023-05-01T04:08:50.183Z,14.41
2023-05-01T04:09:53.705Z,14.41
2023-05-01T04:10:57.530Z,14.43
2023-05-01T04:12:03.270Z,14.43
2023-05-01T04:13:08.060Z,14.44
2023-05-01T04:14:11.999Z,14.46
2023-05-01T04:15:17.037Z,14.48
2023-05-01T04:16:20.579Z,14.50
2023-05-01T04:17:24.662Z,14.53
2023-05-01T04:18:28.424Z,14.56
2023-05-01T04:19:36.236Z,14.59
2023-05-01T04:20:40.921Z,14.63
2023-05-01T04:21:44.625Z,14.67
2023-05-01T04:22:48.738Z,14.71
2023-05-01T04:23:52.799Z,14.74
2023-05-01T04:24:57.010Z,14.77
2023-05-01T04:26:00.516Z,14.79
2023-05-01T04:27:03.702Z,14.82
2023-05-01T04:28:07.232Z,14.85
2023-05-01T04:29:11.029Z,14.88
2023-05-01T04:30:14.580Z,14.89
2023-05-01T04:31:18.541Z,14.91
2023-05-01T04:32:22.587Z,14.91
2023-05-01T04:33:26.669Z,14.93
2023-05-01T04:34:31.047Z,14.95
2023-05-01T04:35:34.196Z,14.97
2023-05-01T04:36:38.104Z,14.99
2023-05-01T04:37:42.217Z,14.99
2023-05-01T04:38:46.299Z,15.00
2023-05-01T04:39:51.888Z,15.01
2023-05-01T04:40:57.337Z,15.01
2023-05-01T04:42:01.138Z,15.02
2023-05-01T04:43:05.144Z,15.02
2023-05-01T04:44:09.305Z,15.03
2023-05-01T04:45:13.158Z,15.03
2023-05-01T04:46:17.347Z,15.01
2023-05-01T04:47:21.424Z,15.00
2023-05-01T04:48:25.353Z,15.02
2023-05-01T04:49:28.600Z,15.02
2023-05-01T04:50:32.831Z,15.04
2023-05-01T04:51:36.715Z,15.06
2023-05-01T04:52:40.218Z,15.07
2023-05-01T04:53:43.576Z,15.08
2023-05-01T04:54:58.886Z,15.08
2023-05-01T04:56:05.122Z,15.09
2023-05-01T04:57:10.061Z,15.08
2023-05-01T04:58:13.784Z,15.10
2023-05-01T04:59:18.074Z,15.08
2023-05-01T05:00:22.437Z,15.09
2023-05-01T05:01:31.564Z,15.09
2023-05-01T05:02:35.559Z,15.11
2023-05-01T05:03:39.014Z,15.14
2023-05-01T05:04:42.645Z,15.14
2023-05-01T05:05:47.454Z,15.15
2023-05-01T05:06:51.926Z,15.15
2023-05-01T05:08:03.712Z,15.17
2023-05-01T05:09:12.124Z,15.15
2023-05-01T05:10:15.991Z,15.14
2023-05-01T05:11:25.513Z,15.14
2023-05-01T05:12:49.722Z,15.14
2023-05-01T05:13:53.458Z,15.15
2023-05-01T05:14:57.304Z,15.15
2023-05-01T05:16:01.418Z,15.15
2023-05-01T05:17:05.321Z,15.17
2023-05-01T05:18:08.911Z,15.19
2023-05-01T05:19:12.303Z,15.20
2023-05-01T05:20:18.899Z,15.20
2023-05-01T05:21:22.423Z,15.22
2023-05-01T05:22:29.603Z,15.21
2023-05-01T05:23:54.054Z,15.20
2023-05-01T05:25:01.429Z,15.21
2023-05-01T05:26:06.155Z,15.20
2023-05-01T05:27:09.366Z,15.19
2023-05-01T05:28:13.188Z,15.18
2023-05-01T05:29:18.509Z,15.19
2023-05-01T05:30:21.779Z,15.19
2023-05-01T05:31:25.502Z,15.19
2023-05-01T05:32:30.428Z,15.19
2023-05-01T05:33:33.930Z,15.20
2023-05-01T05:34:37.600Z,15.20
2023-05-01T05:35:41.559Z,15.22
2023-05-01T05:36:44.837Z,15.22
2023-05-01T05:37:48.280Z,15.22
2023-05-01T05:38:52.797Z,15.23
2023-05-01T05:39:56.556Z,15.23
2023-05-01T05:41:01.892Z,15.22
2023-05-01T05:42:07.097Z,15.24
2023-05-01T05:43:11.690Z,15.24
2023-05-01T05:44:16.490Z,15.19
2023-05-01T05:45:21.936Z,15.14
2023-05-01T05:46:25.617Z,15.07
2023-05-01T05:47:29.199Z,15.05
2023-05-01T05:48:33.030Z,15.05
2023-05-01T05:49:37.173Z,15.02
2023-05-01T05:50:41.058Z,15.04
2023-05-01T05:51:45.657Z,15.04
2023-05-01T05:52:49.215Z,15.05
2023-05-01T05:53:53.219Z,15.07
2023-05-01T05:54:57.278Z,15.10
2023-05-01T05:56:01.148Z,15.13
2023-05-01T05:57:07.387Z,15.15
2023-05-01T05:58:20.859Z,15.18
2023-05-01T05:59:25.950Z,15.21
2023-05-01T06:00:29.751Z,15.25
2023-05-01T06:01:38.259Z,15.28
2023-05-01T06:02:42.178Z,15.30
2023-05-01T06:03:45.826Z,15.32
2023-05-01T06:04:49.869Z,15.36
2023-05-01T06:05:56.255Z,15.39
2023-05-01T06:07:01.257Z,15.41
2023-05-01T06:08:05.111Z,15.44
2023-05-01T06:09:13.684Z,15.45
2023-05-01T06:10:17.972Z,15.47
2023-05-01T06:11:22.404Z,15.47
2023-05-01T06:12:26.352Z,15.47
2023-05-01T06:13:30.318Z,15.48
2023-05-01T06:14:33.749Z,15.51
2023-05-01T06:15:40.456Z,15.53
2023-05-01T06:16:43.902Z,15.52
2023-05-01T06:17:47.149Z,15.58
2023-05-01T06:18:50.526Z,15.58
2023-05-01T06:19:54.122Z,15.59
2023-05-01T06:20:58.048Z,15.60
2023-05-01T06:22:02.195Z,15.60
2023-05-01T06:23:10.628Z,15.62
2023-05-01T06:24:24.097Z,15.62
2023-05-01T06:25:29.141Z,15.62
2023-05-01T06:26:32.574Z,15.63
2023-05-01T06:27:36.569Z,15.64
2023-05-01T06:28:40.363Z,15.67
2023-05-01T06:29:43.994Z,15.70
2023-05-01T06:30:47.227Z,15.74
2023-05-01T06:31:52.470Z,15.72
2023-05-01T06:32:56.388Z,15.72
2023-05-01T06:34:00.365Z,15.77
2023-05-01T06:35:24.034Z,15.83
2023-05-01T06:36:27.604Z,15.80
2023-05-01T06:37:31.748Z,15.78
2023-05-01T06:38:36.204Z,15.80
2023-05-01T06:39:40.058Z,15.82
2023-05-01T06:40:43.765Z,15.84
2023-05-01T06:41:48.619Z,15.85
2023-05-01T06:43:00.339Z,15.86
2023-05-01T06:44:05.667Z,15.89
2023-05-01T06:45:09.136Z,15.96
2023-05-01T06:46:13.050Z,16.01
2023-05-01T06:47:17.251Z,16.05
2023-05-01T06:48:20.436Z,16.08
2023-05-01T06:49:24.254Z,16.11
2023-05-01T06:50:27.792Z,16.14
2023-05-01T06:51:32.507Z,16.21
2023-05-01T06:52:35.872Z,16.27
2023-05-01T06:53:40.953Z,16.22
2023-05-01T06:54:44.732Z,16.17
2023-05-01T06:55:48.466Z,16.15
2023-05-01T06:56:52.210Z,16.15
2023-05-01T06:57:55.338Z,16.16
2023-05-01T06:58:58.914Z,16.15
2023-05-01T07:00:02.799Z,16.14
2023-05-01T07:01:06.826Z,16.14
2023-05-01T07:02:10.991Z,16.19
2023-05-01T07:03:15.153Z,16.18
2023-05-01T07:04:18.490Z,16.21
2023-05-01T07:05:23.386Z,16.23
2023-05-01T07:06:28.317Z,16.22
2023-05-01T07:07:32.537Z,16.27
2023-05-01T07:08:36.289Z,16.29
2023-05-01T07:09:39.977Z,16.29
2023-05-01T07:10:43.850Z,16.33
2023-05-01T07:11:47.320Z,16.36
2023-05-01T07:12:51.526Z,16.40
2023-05-01T07:13:55.851Z,16.41
2023-05-01T07:14:59.295Z,16.43
2023-05-01T07:16:03.292Z,16.47
2023-05-01T07:17:07.744Z,16.48
2023-05-01T07:18:12.976Z,16.50
2023-05-01T07:19:16.382Z,16.58
2023-05-01T07:20:19.508Z,16.57
2023-05-01T07:21:22.836Z,16.56
2023-05-01T07:22:26.142Z,16.58
2023-05-01T07:23:29.640Z,16.56
2023-05-01T07:24:33.189Z,16.53
2023-05-01T07:25:41.890Z,16.53
2023-05-01T07:26:45.022Z,16.53
2023-05-01T07:27:48.437Z,16.55
2023-05-01T07:28:52.384Z,16.60
2023-05-01T07:29:58.775Z,16.63
2023-05-01T07:31:02.623Z,16.68
2023-05-01T07:32:07.074Z,16.67
2023-05-01T07:33:10.624Z,16.67
2023-05-01T07:34:14.738Z,16.69
2023-05-01T07:35:18.668Z,16.70
2023-05-01T07:36:22.844Z,16.76
2023-05-01T07:37:28.032Z,16.80
2023-05-01T07:38:31.678Z,16.80
2023-05-01T07:39:35.508Z,16.78
2023-05-01T07:40:39.628Z,16.85
2023-05-01T07:41:43.594Z,16.84
2023-05-01T07:42:47.494Z,16.87
2023-05-01T07:43:51.530Z,16.90
2023-05-01T07:44:55.622Z,16.97
2023-05-01T07:46:02.232Z,17.05
2023-05-01T07:47:06.788Z,17.09
2023-05-01T07:48:10.416Z,17.12
2023-05-01T07:49:14.117Z,17.14
2023-05-01T07:50:17.781Z,17.20
2023-05-01T07:51:21.268Z,17.27
2023-05-01T07:52:24.833Z,17.30
2023-05-01T07:53:28.743Z,17.31
2023-05-01T07:54:32.233Z,17.37
2023-05-01T07:55:35.549Z,17.35
2023-05-01T07:56:38.910Z,17.39
2023-05-01T07:57:42.935Z,17.42
2023-05-01T07:58:46.783Z,17.46
2023-05-01T07:59:54.733Z,17.51
2023-05-01T08:00:58.053Z,17.57
2023-05-01T08:02:01.687Z,17.60
2023-05-01T08:03:05.939Z,17.65
2023-05-01T08:04:09.737Z,17.71
2023-05-01T08:05:13.407Z,17.75
2023-05-01T08:06:17.205Z,17.83
2023-05-01T08:07:21.222Z,17.90
2023-05-01T08:08:24.894Z,18.05
2023-05-01T08:09:28.438Z,18.19
2023-05-01T08:10:31.830Z,18.35
2023-05-01T08:11:35.716Z,18.44
2023-05-01T08:12:40.188Z,18.50
2023-05-01T08:13:44.111Z,18.53
2023-05-01T08:14:47.963Z,18.57
2023-05-01T08:15:51.657Z,18.69
2023-05-01T08:16:56.265Z,18.77
2023-05-01T08:17:59.853Z,18.84
2023-05-01T08:19:03.817Z,18.81
2023-05-01T08:20:07.734Z,18.77
2023-05-01T08:21:11.922Z,18.83
2023-05-01T08:22:15.747Z,18.92
2023-05-01T08:23:19.594Z,19.05
2023-05-01T08:24:23.288Z,19.17
2023-05-01T08:25:26.405Z,19.31
2023-05-01T08:26:30.055Z,19.36
2023-05-01T08:27:34.749Z,19.41
2023-05-01T08:28:38.575Z,19.51
2023-05-01T08:29:42.818Z,19.73
2023-05-01T08:30:46.791Z,20.20
2023-05-01T08:31:49.922Z,20.74
2023-05-01T08:32:53.605Z,21.80
2023-05-01T08:33:57.020Z,22.23
2023-05-01T08:34:59.959Z,23.07
2023-05-01T08:36:03.568Z,23.44
2023-05-01T08:37:07.277Z,23.91
2023-05-01T08:38:12.192Z,23.99
2023-05-01T08:39:16.587Z,24.10
2023-05-01T08:40:20.307Z,24.40
2023-05-01T08:41:24.636Z,25.02
2023-05-01T08:42:29.823Z,25.52
2023-05-01T08:43:34.581Z,25.68
2023-05-01T08:44:40.426Z,25.77
2023-05-01T08:45:44.381Z,26.45
2023-05-01T08:46:53.998Z,26.77
2023-05-01T08:47:57.482Z,27.26
2023-05-01T08:49:01.021Z,27.60
2023-05-01T08:50:04.752Z,28.04
2023-05-01T08:51:08.639Z,28.35
2023-05-01T08:52:12.708Z,28.66
2023-05-01T08:53:19.179Z,28.86
2023-05-01T08:54:23.362Z,29.05
2023-05-01T08:55:26.776Z,29.28
2023-05-01T08:56:32.325Z,29.58
2023-05-01T08:57:36.343Z,29.91
2023-05-01T08:58:39.798Z,30.16
2023-05-01T08:59:43.861Z,30.34
2023-05-01T09:00:48.202Z,30.25
2023-05-01T09:01:51.688Z,30.40
2023-05-01T09:02:55.204Z,30.59
2023-05-01T09:03:59.582Z,30.77
2023-05-01T09:05:04.892Z,30.91
2023-05-01T09:06:08.508Z,31.11
2023-05-01T09:07:12.999Z,31.34
2023-05-01T09:08:17.094Z,31.54
2023-05-01T09:09:20.845Z,31.48
2023-05-01T09:10:24.558Z,31.67
2023-05-01T09:11:28.500Z,31.83
2023-05-01T09:12:36.033Z,32.01
2023-05-01T09:13:39.745Z,32.09
2023-05-01T09:14:43.584Z,32.19
2023-05-01T09:15:47.283Z,32.32
2023-05-01T09:16:50.816Z,32.47
2023-05-01T09:17:55.312Z,32.56
2023-05-01T09:19:00.003Z,32.68
2023-05-01T09:20:07.172Z,32.72
2023-05-01T09:21:11.062Z,32.76
2023-05-01T09:22:14.203Z,32.74
2023-05-01T09:23:17.585Z,32.76
2023-05-01T09:24:21.883Z,32.73
2023-05-01T09:25:25.296Z,32.53
2023-05-01T09:26:28.978Z,32.43
2023-05-01T09:27:38.067Z,32.33
2023-05-01T09:28:47.861Z,32.33
2023-05-01T09:29:51.709Z,32.37
2023-05-01T09:30:54.971Z,32.48
2023-05-01T09:31:59.335Z,32.56
2023-05-01T09:33:20.660Z,32.61
2023-05-01T09:34:24.382Z,32.73
2023-05-01T09:35:28.576Z,32.85
2023-05-01T09:36:33.349Z,32.96
2023-05-01T09:37:37.567Z,33.05
2023-05-01T09:38:40.959Z,33.13
2023-05-01T09:39:44.437Z,33.19
2023-05-01T09:40:48.083Z,33.20
2023-05-01T09:41:53.671Z,33.19
2023-05-01T09:42:57.375Z,33.18
2023-05-01T09:44:00.971Z,33.20
2023-05-01T09:45:05.995Z,33.20
2023-05-01T09:46:11.617Z,33.20
2023-05-01T09:47:23.527Z,33.24
2023-05-01T09:48:27.344Z,33.31
2023-05-01T09:49:47.441Z,33.36
2023-05-01T09:50:50.493Z,33.36
2023-05-01T09:51:53.801Z,33.57
2023-05-01T09:52:57.348Z,33.69
2023-05-01T09:54:02.433Z,33.80
2023-05-01T09:55:18.727Z,33.89
2023-05-01T09:56:22.863Z,33.93
2023-05-01T09:57:41.360Z,33.82
2023-05-01T09:58:45.199Z,33.20
2023-05-01T10:00:03.715Z,33.26
2023-05-01T10:01:07.596Z,33.36
2023-05-01T10:02:28.915Z,33.50
2023-05-01T10:03:33.276Z,33.54
2023-05-01T10:04:36.829Z,33.62
2023-05-01T10:05:46.062Z,33.65
2023-05-01T10:06:49.539Z,33.71
2023-05-01T10:08:00.243Z,33.82
2023-05-01T10:09:04.642Z,33.94
2023-05-01T10:10:20.926Z,34.02
2023-05-01T10:11:25.258Z,34.15
2023-05-01T10:12:29.296Z,34.14
2023-05-01T10:13:33.292Z,34.12
2023-05-01T10:14:55.173Z,34.10
2023-05-01T10:15:59.195Z,33.96
2023-05-01T10:17:03.161Z,33.95
2023-05-01T10:18:06.885Z,33.76
2023-05-01T10:19:10.661Z,33.76
2023-05-01T10:20:14.332Z,33.79
2023-05-01T10:21:18.331Z,33.82
2023-05-01T10:22:22.905Z,33.82
2023-05-01T10:23:26.736Z,33.86
2023-05-01T10:24:30.453Z,33.72
2023-05-01T10:25:34.460Z,33.47
2023-05-01T10:26:38.605Z,33.33
2023-05-01T10:27:42.697Z,33.38
2023-05-01T10:28:49.081Z,33.41
2023-05-01T10:29:54.366Z,33.15
2023-05-01T10:30:58.813Z,33.19
2023-05-01T10:32:03.238Z,33.33
2023-05-01T10:33:07.174Z,33.45
2023-05-01T10:34:12.193Z,33.47
2023-05-01T10:35:20.150Z,33.57
2023-05-01T10:36:54.163Z,33.67
2023-05-01T10:38:03.100Z,33.69
2023-05-01T10:39:06.630Z,33.81
2023-05-01T10:40:41.180Z,33.92
2023-05-01T10:42:00.236Z,33.85
2023-05-01T10:43:18.983Z,33.97
2023-05-01T10:44:24.419Z,33.96
2023-05-01T10:45:31.613Z,34.06
2023-05-01T10:46:35.470Z,34.08
2023-05-01T10:47:42.867Z,34.01
2023-05-01T10:48:46.976Z,34.01
2023-05-01T10:50:06.081Z,33.98
2023-05-01T10:51:21.207Z,34.01
2023-05-01T10:52:25.054Z,33.95
2023-05-01T10:53:28.379Z,33.80
2023-05-01T10:54:33.599Z,33.69
2023-05-01T10:55:38.316Z,33.65
2023-05-01T10:56:43.604Z,33.62
2023-05-01T10:57:46.864Z,33.64
2023-05-01T10:59:05.754Z,33.64
2023-05-01T11:00:10.090Z,33.55
2023-05-01T11:01:35.460Z,33.26
2023-05-01T11:02:39.004Z,33.37
2023-05-01T11:03:42.614Z,33.39
2023-05-01T11:04:51.962Z,33.46
2023-05-01T11:06:01.325Z,33.60
2023-05-01T11:07:12.021Z,33.76
2023-05-01T11:08:33.930Z,33.98
2023-05-01T11:09:56.032Z,34.06
2023-05-01T11:11:06.728Z,34.17
2023-05-01T11:12:11.749Z,34.23
2023-05-01T11:13:15.941Z,34.22
2023-05-01T11:14:20.351Z,34.12
2023-05-01T11:15:34.913Z,34.09
2023-05-01T11:16:43.796Z,34.09
2023-05-01T11:17:47.814Z,33.96
2023-05-01T11:18:51.769Z,33.92
2023-05-01T11:19:55.626Z,33.86
2023-05-01T11:20:59.737Z,33.88
2023-05-01T11:22:03.219Z,33.85
2023-05-01T11:23:06.992Z,33.78
2023-05-01T11:24:10.607Z,33.74
2023-05-01T11:25:24.160Z,33.55
2023-05-01T11:26:27.725Z,33.51
2023-05-01T11:27:34.971Z,33.43
2023-05-01T11:28:39.483Z,33.48
2023-05-01T11:29:45.006Z,33.52
2023-05-01T11:30:48.713Z,33.42
2023-05-01T11:31:52.567Z,33.47
2023-05-01T11:32:55.839Z,33.51
2023-05-01T11:34:00.549Z,33.41
2023-05-01T11:35:04.298Z,33.36
2023-05-01T11:36:08.333Z,33.28
2023-05-01T11:37:12.084Z,33.36
2023-05-01T11:38:22.675Z,33.37
2023-05-01T11:39:26.277Z,33.41
2023-05-01T11:40:35.280Z,33.38
2023-05-01T11:41:39.006Z,33.36
2023-05-01T11:42:42.131Z,33.25
2023-05-01T11:43:58.873Z,32.83
2023-05-01T11:45:14.467Z,32.71
2023-05-01T11:46:28.474Z,32.47
2023-05-01T11:47:35.102Z,32.49
2023-05-01T11:48:38.964Z,32.45
2023-05-01T11:49:42.972Z,32.36
2023-05-01T11:50:47.014Z,32.30
2023-05-01T11:51:58.694Z,32.19
2023-05-01T11:53:02.496Z,32.21
2023-05-01T11:54:06.608Z,32.24
2023-05-01T11:55:11.394Z,32.33
2023-05-01T11:56:26.413Z,32.42
2023-05-01T11:57:31.834Z,32.40
2023-05-01T11:58:35.311Z,32.40
2023-05-01T11:59:39.245Z,32.37
2023-05-01T12:00:43.718Z,32.33
2023-05-01T12:01:47.734Z,32.34
2023-05-01T12:03:10.857Z,32.50
2023-05-01T12:04:15.912Z,32.60
2023-05-01T12:05:19.797Z,32.58
2023-05-01T12:06:23.492Z,32.50
2023-05-01T12:07:27.117Z,32.42
2023-05-01T12:08:30.678Z,32.24
2023-05-01T12:09:34.422Z,32.29
2023-05-01T12:10:38.570Z,32.28
2023-05-01T12:11:42.471Z,32.17
2023-05-01T12:12:45.841Z,32.14
2023-05-01T12:13:50.798Z,32.03
2023-05-01T12:14:54.494Z,31.98
2023-05-01T12:15:57.727Z,31.87
2023-05-01T12:17:01.464Z,31.90
2023-05-01T12:18:06.643Z,31.86
2023-05-01T12:19:12.847Z,31.77
2023-05-01T12:20:16.836Z,31.64
2023-05-01T12:21:20.359Z,31.64
2023-05-01T12:22:24.163Z,31.67
2023-05-01T12:23:36.077Z,31.55
2023-05-01T12:24:40.434Z,31.39
2023-05-01T12:25:44.816Z,31.36
2023-05-01T12:26:48.381Z,31.01
2023-05-01T12:27:52.267Z,30.66
2023-05-01T12:29:01.027Z,30.63
2023-05-01T12:30:04.603Z,30.77
2023-05-01T12:31:08.725Z,30.86
2023-05-01T12:32:12.486Z,30.92
2023-05-01T12:33:20.689Z,30.71
2023-05-01T12:34:30.480Z,30.64
2023-05-01T12:35:33.908Z,30.68
2023-05-01T12:36:37.787Z,30.72
2023-05-01T12:37:41.606Z,30.66
2023-05-01T12:39:01.857Z,30.59
2023-05-01T12:40:06.222Z,30.47
2023-05-01T12:41:13.227Z,30.43
2023-05-01T12:42:17.413Z,30.42
2023-05-01T12:43:33.455Z,30.29
2023-05-01T12:44:37.712Z,30.08
2023-05-01T12:45:41.848Z,30.09
2023-05-01T12:46:45.265Z,30.24
2023-05-01T12:47:48.954Z,30.10
2023-05-01T12:48:53.735Z,30.13
2023-05-01T12:50:08.495Z,30.14
2023-05-01T12:51:18.714Z,30.04
2023-05-01T12:52:26.816Z,29.98
2023-05-01T12:53:30.465Z,29.89
2023-05-01T12:54:35.882Z,29.85
2023-05-01T12:55:49.316Z,29.95
2023-05-01T12:56:55.646Z,30.02
2023-05-01T12:57:58.935Z,29.86
2023-05-01T12:59:02.541Z,29.85
2023-05-01T13:00:06.229Z,29.85
2023-05-01T13:01:10.038Z,29.76
2023-05-01T13:02:16.631Z,29.68
2023-05-01T13:03:27.919Z,29.61
2023-05-01T13:04:31.930Z,29.68
2023-05-01T13:05:35.932Z,29.60
2023-05-01T13:06:40.052Z,29.60
2023-05-01T13:07:49.261Z,29.47
2023-05-01T13:08:53.094Z,29.26
2023-05-01T13:09:59.923Z,29.13
2023-05-01T13:11:11.211Z,29.12
2023-05-01T13:12:14.816Z,29.22
2023-05-01T13:13:27.795Z,29.13
2023-05-01T13:14:31.501Z,29.08
2023-05-01T13:15:34.849Z,29.05
2023-05-01T13:16:47.784Z,28.84
2023-05-01T13:17:51.881Z,28.84
2023-05-01T13:18:56.056Z,28.81
2023-05-01T13:20:03.524Z,28.85
2023-05-01T13:21:11.339Z,28.92
2023-05-01T13:22:14.675Z,28.95
2023-05-01T13:23:18.154Z,28.83
2023-05-01T13:24:22.165Z,28.83
2023-05-01T13:25:25.584Z,28.87
2023-05-01T13:26:32.392Z,28.77
2023-05-01T13:27:35.750Z,28.57
2023-05-01T13:28:46.117Z,28.42
2023-05-01T13:30:01.513Z,28.39
2023-05-01T13:31:15.776Z,28.47
2023-05-01T13:32:19.547Z,28.35
2023-05-01T13:33:23.194Z,28.27
2023-05-01T13:34:31.488Z,28.17
2023-05-01T13:35:35.705Z,28.15
2023-05-01T13:36:40.002Z,28.06
2023-05-01T13:37:43.486Z,28.09
2023-05-01T13:38:54.829Z,27.96
2023-05-01T13:40:01.664Z,28.04
2023-05-01T13:41:05.373Z,27.87
2023-05-01T13:42:09.669Z,27.76
2023-05-01T13:43:16.365Z,27.82
2023-05-01T13:44:19.934Z,27.68
2023-05-01T13:45:23.382Z,27.48
2023-05-01T13:46:30.236Z,27.44
2023-05-01T13:47:33.936Z,27.49
2023-05-01T13:48:37.091Z,27.45
2023-05-01T13:49:42.440Z,27.63
2023-05-01T13:50:46.057Z,27.59
2023-05-01T13:51:49.934Z,27.61
2023-05-01T13:52:53.406Z,27.68
2023-05-01T13:53:57.107Z,27.53
2023-05-01T13:55:02.034Z,27.46
2023-05-01T13:56:08.448Z,27.27
2023-05-01T13:57:12.208Z,27.12
2023-05-01T13:58:16.171Z,27.04
2023-05-01T13:59:19.722Z,27.11
2023-05-01T14:00:23.418Z,27.16
2023-05-01T14:01:27.204Z,27.10
2023-05-01T14:02:31.106Z,27.11
2023-05-01T14:03:41.522Z,27.05
2023-05-01T14:04:45.344Z,27.05
2023-05-01T14:05:49.449Z,27.03
2023-05-01T14:06:53.225Z,27.04
2023-05-01T14:07:58.192Z,26.85
2023-05-01T14:09:01.655Z,26.90